createdAt,value
2022-09-27T00:01:12.499Z,18.60
2022-09-27T00:03:41.158Z,18.59
2022-09-27T00:06:14.318Z,18.61
2022-09-27T00:08:43.644Z,18.62
2022-09-27T00:11:17.569Z,18.62
2022-09-27T00:13:46.083Z,18.61
2022-09-27T00:16:14.438Z,18.61
2022-09-27T00:18:42.927Z,18.60
2022-09-27T00:21:14.902Z,18.61
2022-09-27T00:23:43.254Z,18.60
2022-09-27T00:26:13.248Z,18.59
2022-09-27T00:28:41.822Z,18.59
2022-09-27T00:31:20.951Z,18.58
2022-09-27T00:33:50.588Z,18.58
2022-09-27T00:36:21.644Z,18.59
2022-09-27T00:38:50.074Z,18.57
2022-09-27T00:41:20.460Z,18.56
2022-09-27T00:43:50.516Z,18.55
2022-09-27T00:46:26.704Z,18.55
2022-09-27T00:49:05.639Z,18.56
2022-09-27T00:51:38.212Z,18.56
2022-09-27T00:54:07.118Z,18.54
2022-09-27T00:56:36.790Z,18.54
2022-09-27T00:59:09.057Z,18.52
2022-09-27T01:01:37.405Z,18.51
2022-09-27T01:04:08.823Z,18.50
2022-09-27T01:06:38.641Z,18.50
2022-09-27T01:09:08.181Z,18.51
2022-09-27T01:11:42.986Z,18.50
2022-09-27T01:14:39.373Z,18.51
2022-09-27T01:17:18.499Z,18.49
2022-09-27T01:20:13.554Z,18.47
2022-09-27T01:22:52.545Z,18.47
2022-09-27T01:25:39.410Z,18.46
2022-09-27T01:28:20.719Z,18.45
2022-09-27T01:30:55.210Z,18.46
2022-09-27T01:33:42.351Z,18.43
2022-09-27T01:36:20.997Z,18.43
2022-09-27T01:38:57.913Z,18.44
2022-09-27T01:41:34.248Z,18.43
2022-09-27T01:44:23.272Z,18.42
2022-09-27T01:47:00.012Z,18.41
2022-09-27T01:49:46.005Z,18.42
2022-09-27T01:52:17.829Z,18.42
2022-09-27T01:54:49.108Z,18.40
2022-09-27T01:57:50.441Z,18.39
2022-09-27T02:00:25.035Z,18.41
2022-09-27T02:03:00.494Z,18.38
2022-09-27T02:05:33.383Z,18.37
2022-09-27T02:08:15.456Z,18.36
2022-09-27T02:10:46.207Z,18.37
2022-09-27T02:13:22.616Z,18.33
2022-09-27T02:15:59.564Z,18.35
2022-09-27T02:18:51.471Z,18.34
2022-09-27T02:21:21.028Z,18.35
2022-09-27T02:23:52.648Z,18.33
2022-09-27T02:26:24.029Z,18.33
2022-09-27T02:28:57.883Z,18.31
2022-09-27T02:31:32.497Z,18.32
2022-09-27T02:34:04.718Z,18.31
2022-09-27T02:36:32.987Z,18.30
2022-09-27T02:39:01.446Z,18.30
2022-09-27T02:41:32.167Z,18.30
2022-09-27T02:44:02.864Z,18.29
2022-09-27T02:46:57.182Z,18.30
2022-09-27T02:49:40.251Z,18.26
2022-09-27T02:52:24.453Z,18.29
2022-09-27T02:54:58.621Z,18.29
2022-09-27T02:57:58.585Z,18.28
2022-09-27T03:00:49.468Z,18.29
2022-09-27T03:03:41.282Z,18.27
2022-09-27T03:06:12.691Z,18.28
2022-09-27T03:08:41.900Z,18.23
2022-09-27T03:11:10.278Z,18.26
2022-09-27T03:13:55.863Z,18.23
2022-09-27T03:16:28.047Z,18.22
2022-09-27T03:19:11.250Z,18.23
2022-09-27T03:22:03.510Z,18.25
2022-09-27T03:24:31.905Z,18.22
2022-09-27T03:27:00.440Z,18.23
2022-09-27T03:29:28.952Z,18.18
2022-09-27T03:32:05.314Z,18.20
2022-09-27T03:34:55.283Z,18.18
2022-09-27T03:37:26.992Z,18.19
2022-09-27T03:39:55.233Z,18.19
2022-09-27T03:42:23.513Z,18.19
2022-09-27T03:44:53.518Z,18.14
2022-09-27T03:47:23.065Z,18.15
2022-09-27T03:49:51.352Z,18.18
2022-09-27T03:52:19.591Z,18.08
2022-09-27T03:54:49.252Z,18.09
2022-09-27T03:57:17.816Z,18.08
2022-09-27T03:59:46.199Z,18.07
2022-09-27T04:02:45.731Z,18.09
2022-09-27T04:05:26.828Z,18.08
2022-09-27T04:08:01.598Z,18.08
2022-09-27T04:10:34.034Z,18.08
2022-09-27T04:13:02.789Z,18.09
2022-09-27T04:15:35.883Z,18.10
2022-09-27T04:18:23.136Z,18.05
2022-09-27T04:21:20.512Z,18.08
2022-09-27T04:23:52.716Z,18.06
2022-09-27T04:26:25.817Z,18.05
2022-09-27T04:29:00.917Z,18.02
2022-09-27T04:31:29.846Z,18.07
2022-09-27T04:34:10.217Z,18.01
2022-09-27T04:36:38.039Z,18.05
2022-09-27T04:39:10.782Z,18.06
2022-09-27T04:41:45.014Z,18.02
2022-09-27T04:44:13.562Z,18.04
2022-09-27T04:46:49.071Z,18.01
2022-09-27T04:49:18.047Z,18.02
2022-09-27T04:51:47.089Z,18.02
2022-09-27T04:54:16.084Z,17.96
2022-09-27T04:56:53.993Z,17.96
2022-09-27T04:59:22.599Z,17.92
2022-09-27T05:01:51.213Z,17.93
2022-09-27T05:04:39.295Z,17.95
2022-09-27T05:07:09.678Z,17.96
2022-09-27T05:09:45.209Z,17.91
2022-09-27T05:12:14.884Z,17.85
2022-09-27T05:14:47.282Z,17.84
2022-09-27T05:17:36.015Z,17.76
2022-09-27T05:20:22.850Z,17.81
2022-09-27T05:23:00.311Z,17.79
2022-09-27T05:25:28.786Z,17.79
2022-09-27T05:27:59.292Z,17.75
2022-09-27T05:30:28.278Z,17.79
2022-09-27T05:33:06.643Z,17.75
2022-09-27T05:35:54.151Z,17.76
2022-09-27T05:38:25.246Z,17.66
2022-09-27T05:40:56.949Z,17.61
2022-09-27T05:43:28.311Z,17.66
2022-09-27T05:45:58.651Z,17.76
2022-09-27T05:48:30.239Z,17.81
2022-09-27T05:51:08.240Z,17.79
2022-09-27T05:53:39.672Z,17.84
2022-09-27T05:56:13.422Z,17.84
2022-09-27T05:59:17.877Z,17.80
2022-09-27T06:02:06.472Z,17.78
2022-09-27T06:05:03.656Z,17.78
2022-09-27T06:07:51.923Z,17.85
2022-09-27T06:10:31.990Z,17.87
2022-09-27T06:13:02.317Z,17.80
2022-09-27T06:15:39.981Z,17.78
2022-09-27T06:18:10.337Z,17.82
2022-09-27T06:20:39.566Z,17.80
2022-09-27T06:23:09.595Z,17.82
2022-09-27T06:25:39.420Z,17.77
2022-09-27T06:28:17.571Z,17.78
2022-09-27T06:30:50.926Z,17.77
2022-09-27T06:33:37.401Z,17.82
2022-09-27T06:36:07.547Z,17.76
2022-09-27T06:38:38.339Z,17.82
2022-09-27T06:41:16.407Z,17.80
2022-09-27T06:43:53.520Z,17.76
2022-09-27T06:46:35.242Z,17.73
2022-09-27T06:49:31.652Z,17.82
2022-09-27T06:52:00.008Z,17.75
2022-09-27T06:54:28.237Z,17.80
2022-09-27T06:57:00.289Z,17.71
2022-09-27T06:59:48.222Z,17.62
2022-09-27T07:02:36.560Z,17.62
2022-09-27T07:05:34.516Z,17.68
2022-09-27T07:08:14.983Z,17.73
2022-09-27T07:10:43.528Z,17.79
2022-09-27T07:13:12.899Z,17.76
2022-09-27T07:15:57.815Z,17.68
2022-09-27T07:18:49.032Z,17.57
2022-09-27T07:21:35.108Z,17.54
2022-09-27T07:24:16.915Z,17.57
2022-09-27T07:27:07.851Z,17.65
2022-09-27T07:29:36.669Z,17.57
2022-09-27T07:35:23.076Z,17.70
2022-09-27T07:37:51.634Z,17.66
2022-09-27T07:40:20.442Z,17.67
2022-09-27T07:42:48.758Z,17.62
2022-09-27T07:45:17.222Z,17.58
2022-09-27T07:48:13.868Z,17.60
2022-09-27T07:51:08.405Z,17.67
2022-09-27T07:53:55.052Z,17.60
2022-09-27T07:56:36.527Z,17.60
2022-09-27T07:59:06.757Z,17.54
2022-09-27T08:01:35.937Z,17.60
2022-09-27T08:04:05.541Z,17.48
2022-09-27T08:06:35.713Z,17.45
2022-09-27T08:09:07.253Z,17.52
2022-09-27T08:11:37.259Z,17.59
2022-09-27T08:14:06.266Z,17.57
2022-09-27T08:16:36.424Z,17.60
2022-09-27T08:19:11.141Z,17.56
2022-09-27T08:22:04.549Z,17.56
2022-09-27T08:24:54.328Z,17.52
2022-09-27T08:27:43.577Z,17.64
2022-09-27T08:35:50.068Z,17.71
2022-09-27T08:38:19.937Z,17.64
2022-09-27T08:40:54.489Z,17.62
2022-09-27T08:43:31.696Z,17.53
2022-09-27T08:46:08.248Z,17.52
2022-09-27T08:48:37.753Z,17.64
2022-09-27T08:51:07.408Z,17.70
2022-09-27T08:53:40.622Z,17.70
2022-09-27T08:56:10.164Z,17.69
2022-09-27T08:58:50.976Z,17.61
2022-09-27T09:01:28.657Z,17.68
2022-09-27T09:04:05.013Z,17.57
2022-09-27T09:06:38.392Z,17.47
2022-09-27T09:09:15.944Z,17.54
2022-09-27T09:12:18.459Z,17.60
2022-09-27T09:14:57.506Z,17.55
2022-09-27T09:17:36.345Z,17.61
2022-09-27T09:20:38.910Z,17.61
2022-09-27T09:23:24.646Z,17.70
2022-09-27T09:25:59.288Z,17.79
2022-09-27T09:28:39.264Z,17.74
2022-09-27T09:31:12.793Z,17.88
2022-09-27T09:33:44.466Z,17.89
2022-09-27T09:36:22.039Z,17.83
2022-09-27T09:38:52.568Z,17.84
2022-09-27T09:41:26.618Z,17.79
2022-09-27T09:43:58.886Z,17.77
2022-09-27T09:46:33.229Z,17.86
2022-09-27T09:49:07.399Z,17.79
2022-09-27T09:51:39.402Z,17.73
2022-09-27T09:54:15.643Z,17.87
2022-09-27T09:56:48.331Z,17.89
2022-09-27T09:59:19.566Z,17.80
2022-09-27T10:01:50.828Z,17.87
2022-09-27T10:04:22.410Z,17.92
2022-09-27T10:06:53.125Z,17.87
2022-09-27T10:09:24.904Z,17.94
2022-09-27T10:12:13.590Z,18.01
2022-09-27T10:14:45.675Z,18.03
2022-09-27T10:17:17.850Z,18.09
2022-09-27T10:19:48.460Z,18.00
2022-09-27T10:22:20.503Z,18.02
2022-09-27T10:24:58.438Z,18.07
2022-09-27T10:27:49.228Z,18.05
2022-09-27T10:30:25.467Z,18.02
2022-09-27T10:32:56.998Z,17.89
2022-09-27T10:35:45.102Z,17.87
2022-09-27T10:38:27.499Z,17.91
2022-09-27T10:41:18.677Z,17.93
2022-09-27T10:43:48.360Z,17.98
2022-09-27T10:46:32.405Z,17.95
2022-09-27T10:49:20.081Z,17.90
2022-09-27T10:51:51.709Z,17.87
2022-09-27T10:54:21.721Z,17.85
2022-09-27T10:57:01.958Z,17.85
2022-09-27T11:00:28.455Z,17.88
2022-09-27T11:03:01.528Z,18.08
2022-09-27T11:05:36.023Z,17.97
2022-09-27T11:08:23.156Z,18.06
2022-09-27T11:11:08.241Z,18.09
2022-09-27T11:13:39.415Z,18.08
2022-09-27T11:16:21.117Z,18.11
2022-09-27T11:19:01.743Z,18.19
2022-09-27T11:21:35.087Z,18.24
2022-09-27T11:24:14.064Z,18.31
2022-09-27T11:26:50.991Z,18.33
2022-09-27T11:29:26.571Z,18.29
2022-09-27T11:32:30.868Z,18.18
2022-09-27T11:35:32.482Z,18.13
2022-09-27T11:38:10.236Z,18.03
2022-09-27T11:40:48.412Z,18.15
2022-09-27T11:43:27.832Z,18.23
2022-09-27T11:46:16.771Z,18.27
2022-09-27T11:49:10.795Z,18.18
2022-09-27T11:51:57.448Z,18.03
2022-09-27T11:54:37.175Z,17.96
2022-09-27T11:57:07.877Z,18.01
2022-09-27T11:59:51.335Z,17.99
2022-09-27T12:02:32.981Z,18.00
2022-09-27T12:05:11.382Z,17.99
2022-09-27T12:07:49.455Z,18.02
2022-09-27T12:10:19.865Z,18.01
2022-09-27T12:12:53.532Z,18.03
2022-09-27T12:15:22.929Z,18.14
2022-09-27T12:17:55.739Z,18.22
2022-09-27T12:20:27.843Z,18.34
2022-09-27T12:23:00.696Z,18.46
2022-09-27T12:25:58.919Z,18.48
2022-09-27T12:28:37.030Z,18.52
2022-09-27T12:31:27.930Z,18.53
2022-09-27T12:34:04.462Z,18.59
2022-09-27T12:36:38.353Z,18.64
2022-09-27T12:39:14.612Z,18.66
2022-09-27T12:41:50.109Z,18.70
2022-09-27T12:44:39.593Z,18.77
2022-09-27T12:47:17.011Z,18.81
2022-09-27T12:49:50.812Z,18.83
2022-09-27T12:52:25.398Z,18.83
2022-09-27T12:55:10.969Z,18.82
2022-09-27T12:57:45.945Z,18.78
2022-09-27T13:00:21.030Z,18.73
2022-09-27T13:03:20.340Z,18.69
2022-09-27T13:06:18.141Z,18.63
2022-09-27T13:09:02.617Z,18.61
2022-09-27T13:11:43.335Z,18.57
2022-09-27T13:14:18.666Z,18.54
2022-09-27T13:16:48.144Z,18.52
2022-09-27T13:19:40.302Z,18.49
2022-09-27T13:22:10.050Z,18.49
2022-09-27T13:24:49.747Z,18.48
2022-09-27T13:27:43.759Z,18.58
2022-09-27T13:30:48.381Z,18.60
2022-09-27T13:33:32.965Z,18.62
2022-09-27T13:36:20.043Z,18.69
2022-09-27T13:39:01.855Z,18.68
2022-09-27T13:41:39.166Z,18.61
2022-09-27T13:44:14.130Z,18.52
2022-09-27T13:46:54.516Z,18.53
2022-09-27T13:49:29.419Z,18.52
2022-09-27T13:52:20.737Z,18.54
2022-09-27T13:54:56.105Z,18.56
2022-09-27T13:57:52.037Z,18.65
2022-09-27T14:00:29.671Z,18.62
2022-09-27T14:03:03.891Z,18.62
2022-09-27T14:05:37.627Z,18.58
2022-09-27T14:08:08.151Z,18.59
2022-09-27T14:10:37.084Z,18.60
2022-09-27T14:13:06.463Z,18.65
2022-09-27T14:15:45.732Z,18.65
2022-09-27T14:18:14.849Z,18.62
2022-09-27T14:20:45.939Z,18.58
2022-09-27T14:23:27.657Z,18.50
2022-09-27T14:25:57.796Z,18.48
2022-09-27T14:28:30.306Z,18.48
2022-09-27T14:31:23.074Z,18.48
2022-09-27T14:34:13.997Z,18.48
2022-09-27T14:37:07.455Z,18.45
2022-09-27T14:39:54.966Z,18.45
2022-09-27T14:42:36.506Z,18.45
2022-09-27T14:45:21.007Z,18.42
2022-09-27T14:47:51.641Z,18.39
2022-09-27T14:50:24.819Z,18.41
2022-09-27T14:52:56.109Z,18.41
2022-09-27T14:55:25.816Z,18.37
2022-09-27T14:57:55.265Z,18.36
2022-09-27T15:00:26.204Z,18.33
2022-09-27T15:02:58.985Z,18.34
2022-09-27T15:05:29.060Z,18.35
2022-09-27T15:07:58.189Z,18.35
2022-09-27T15:10:31.237Z,18.33
2022-09-27T15:13:01.426Z,18.34
2022-09-27T15:15:32.016Z,18.34
2022-09-27T15:18:02.264Z,18.32
2022-09-27T15:20:34.896Z,18.34
2022-09-27T15:23:04.714Z,18.34
2022-09-27T15:25:37.952Z,18.34
2022-09-27T15:28:07.390Z,18.35
2022-09-27T15:30:37.406Z,18.39
2022-09-27T15:33:08.827Z,18.35
2022-09-27T15:35:37.515Z,18.36
2022-09-27T15:38:15.333Z,18.35
2022-09-27T15:41:11.753Z,18.35
2022-09-27T15:43:42.999Z,18.27
2022-09-27T15:46:36.520Z,18.31
2022-09-27T15:49:27.243Z,18.35
2022-09-27T15:51:56.762Z,18.36
2022-09-27T15:54:27.132Z,18.35
2022-09-27T15:56:57.045Z,18.33
2022-09-27T15:59:27.586Z,18.34
2022-09-27T16:01:57.292Z,18.34
2022-09-27T16:04:31.078Z,18.30
2022-09-27T16:07:01.952Z,18.30
2022-09-27T16:09:30.463Z,18.26
2022-09-27T16:11:58.769Z,18.27
2022-09-27T16:14:27.176Z,18.24
2022-09-27T16:17:00.449Z,18.27
2022-09-27T16:19:30.318Z,18.27
2022-09-27T16:21:58.617Z,18.27
2022-09-27T16:24:28.842Z,18.27
2022-09-27T16:26:57.273Z,18.24
2022-09-27T16:29:25.911Z,18.21
2022-09-27T16:31:54.555Z,18.21
2022-09-27T16:34:22.885Z,18.19
2022-09-27T16:36:52.503Z,18.18
2022-09-27T16:39:20.823Z,18.16
2022-09-27T16:41:49.299Z,18.13
2022-09-27T16:44:18.187Z,18.18
2022-09-27T16:46:47.267Z,18.19
2022-09-27T16:49:34.082Z,18.16
2022-09-27T16:52:04.136Z,18.17
2022-09-27T16:54:35.117Z,18.18
2022-09-27T16:57:03.487Z,18.17
2022-09-27T16:59:32.357Z,18.14
2022-09-27T17:02:00.721Z,18.17
2022-09-27T17:04:29.630Z,18.15
2022-09-27T17:06:58.280Z,18.15
2022-09-27T17:09:27.901Z,18.14
2022-09-27T17:11:56.317Z,18.13
2022-09-27T17:14:25.321Z,18.13
2022-09-27T17:16:53.925Z,18.10
2022-09-27T17:19:23.318Z,18.13
2022-09-27T17:21:51.913Z,18.11
2022-09-27T17:24:20.166Z,18.11
2022-09-27T17:26:49.796Z,18.11
2022-09-27T17:29:18.862Z,18.10
2022-09-27T17:31:47.143Z,18.09
2022-09-27T17:34:15.915Z,18.09
2022-09-27T17:36:48.235Z,18.09
2022-09-27T17:39:18.512Z,18.06
2022-09-27T17:41:46.811Z,18.09
2022-09-27T17:44:18.233Z,18.09
2022-09-27T17:46:47.210Z,18.07
2022-09-27T17:49:33.086Z,18.07
2022-09-27T17:52:01.646Z,18.06
2022-09-27T17:54:30.002Z,18.05
2022-09-27T17:56:58.263Z,18.04
2022-09-27T17:59:27.919Z,18.04
2022-09-27T18:01:56.249Z,18.02
2022-09-27T18:04:25.623Z,18.04
2022-09-27T18:06:54.384Z,17.99
2022-09-27T18:09:22.704Z,18.01
2022-09-27T18:11:51.028Z,18.01
2022-09-27T18:14:21.007Z,18.00
2022-09-27T18:16:50.875Z,18.01
2022-09-27T18:19:19.356Z,18.00
2022-09-27T18:21:47.711Z,18.00
2022-09-27T18:24:16.145Z,17.99
2022-09-27T18:26:46.467Z,17.99
2022-09-27T18:29:16.263Z,17.97
2022-09-27T18:31:48.493Z,17.98
2022-09-27T18:34:19.211Z,17.96
2022-09-27T18:36:47.601Z,17.97
2022-09-27T18:39:18.849Z,17.97
2022-09-27T18:41:48.861Z,17.95
2022-09-27T18:44:18.722Z,17.96
2022-09-27T18:46:47.365Z,17.96
2022-09-27T18:49:21.068Z,17.94
2022-09-27T18:51:51.978Z,17.94
2022-09-27T18:54:22.917Z,17.95
2022-09-27T18:56:52.227Z,17.94
2022-09-27T18:59:23.627Z,17.92
2022-09-27T19:01:52.302Z,17.92
2022-09-27T19:04:24.649Z,17.92
2022-09-27T19:06:53.963Z,17.88
2022-09-27T19:09:22.591Z,17.88
2022-09-27T19:11:51.034Z,17.87
2022-09-27T19:14:21.063Z,17.86
2022-09-27T19:17:39.628Z,17.87
2022-09-27T19:20:11.445Z,17.85
2022-09-27T19:22:39.738Z,17.86
2022-09-27T19:25:10.039Z,17.86
2022-09-27T19:27:43.078Z,17.84
2022-09-27T19:30:12.953Z,17.85
2022-09-27T19:32:41.306Z,17.85
2022-09-27T19:35:11.627Z,17.81
2022-09-27T19:37:39.867Z,17.80
2022-09-27T19:40:08.894Z,17.76
2022-09-27T19:42:37.153Z,17.78
2022-09-27T19:45:11.445Z,17.79
2022-09-27T19:47:40.220Z,17.76
2022-09-27T19:50:09.745Z,17.78
2022-09-27T19:52:39.639Z,17.78
2022-09-27T19:55:09.045Z,17.76
2022-09-27T19:57:37.344Z,17.77
2022-09-27T20:00:06.577Z,17.77
2022-09-27T20:02:34.998Z,17.78
2022-09-27T20:05:03.448Z,17.77
2022-09-27T20:07:34.861Z,17.76
2022-09-27T20:10:05.136Z,17.78
2022-09-27T20:12:33.419Z,17.72
2022-09-27T20:15:01.716Z,17.75
2022-09-27T20:17:32.732Z,17.76
2022-09-27T20:20:01.200Z,17.72
2022-09-27T20:22:29.625Z,17.76
2022-09-27T20:24:57.876Z,17.65
2022-09-27T20:27:27.599Z,17.57
2022-09-27T20:29:57.086Z,17.62
2022-09-27T20:32:28.152Z,17.58
2022-09-27T20:34:57.067Z,17.66
2022-09-27T20:37:25.518Z,17.56
2022-09-27T20:39:54.141Z,17.63
2022-09-27T20:42:22.480Z,17.64
2022-09-27T20:44:54.480Z,17.62
2022-09-27T20:47:23.319Z,17.64
2022-09-27T20:49:51.669Z,17.61
2022-09-27T20:52:20.532Z,17.60
2022-09-27T20:54:48.824Z,17.59
2022-09-27T20:57:17.131Z,17.52
2022-09-27T20:59:45.371Z,17.60
2022-09-27T21:02:15.297Z,17.62
2022-09-27T21:04:43.823Z,17.54
2022-09-27T21:07:12.112Z,17.58
2022-09-27T21:09:40.406Z,17.51
2022-09-27T21:12:08.709Z,17.56
2022-09-27T21:14:37.019Z,17.60
2022-09-27T21:17:05.255Z,17.60
2022-09-27T21:19:35.637Z,17.56
2022-09-27T21:22:03.951Z,17.53
2022-09-27T21:24:32.409Z,17.50
2022-09-27T21:27:00.848Z,17.51
2022-09-27T21:29:29.205Z,17.56
2022-09-27T21:31:57.551Z,17.55
2022-09-27T21:34:25.900Z,17.53
2022-09-27T21:36:55.773Z,17.56
2022-09-27T21:39:24.088Z,17.55
2022-09-27T21:41:52.364Z,17.46
2022-09-27T21:44:20.681Z,17.52
2022-09-27T21:46:50.382Z,17.51
2022-09-27T21:49:19.023Z,17.49
2022-09-27T21:51:47.376Z,17.50
2022-09-27T21:54:17.182Z,17.52
2022-09-27T21:56:45.509Z,17.50
2022-09-27T21:59:15.463Z,17.52
2022-09-27T22:01:44.938Z,17.51
2022-09-27T22:04:13.718Z,17.52
2022-09-27T22:06:42.425Z,17.50
2022-09-27T22:09:13.882Z,17.51
2022-09-27T22:11:46.248Z,17.51
2022-09-27T22:14:15.257Z,17.50
2022-09-27T22:16:43.662Z,17.51
2022-09-27T22:19:13.348Z,17.50
2022-09-27T22:21:42.622Z,17.50
2022-09-27T22:24:13.655Z,17.49
2022-09-27T22:26:47.048Z,17.48
2022-09-27T22:29:15.656Z,17.49
2022-09-27T22:31:44.052Z,17.50
2022-09-27T22:34:16.973Z,17.49
2022-09-27T22:36:45.413Z,17.48
2022-09-27T22:39:14.119Z,17.47
2022-09-27T22:41:43.862Z,17.47
2022-09-27T22:44:12.159Z,17.47
2022-09-27T22:46:40.741Z,17.47
2022-09-27T22:49:10.034Z,17.46
2022-09-27T22:51:38.485Z,17.46
2022-09-27T22:54:07.333Z,17.45
2022-09-27T22:56:35.671Z,17.45
2022-09-27T22:59:05.490Z,17.46
2022-09-27T23:01:33.780Z,17.43
2022-09-27T23:04:02.638Z,17.46
2022-09-27T23:06:32.048Z,17.44
2022-09-27T23:09:02.673Z,17.44
2022-09-27T23:11:31.139Z,17.42
2022-09-27T23:13:59.472Z,17.44
2022-09-27T23:16:29.162Z,17.42
2022-09-27T23:18:57.887Z,17.42
2022-09-27T23:21:28.624Z,17.42
2022-09-27T23:23:59.614Z,17.41
2022-09-27T23:26:28.920Z,17.41
2022-09-27T23:28:58.780Z,17.39
2022-09-27T23:31:30.244Z,17.41
2022-09-27T23:33:59.860Z,17.38
2022-09-27T23:36:28.740Z,17.38
2022-09-27T23:39:00.419Z,17.39
2022-09-27T23:41:28.969Z,17.38
2022-09-27T23:43:57.505Z,17.39
2022-09-27T23:46:25.873Z,17.36
2022-09-27T23:48:58.819Z,17.37
2022-09-27T23:51:27.315Z,17.37
2022-09-27T23:53:57.054Z,17.36
2022-09-27T23:56:25.701Z,17.36
2022-09-27T23:58:54.181Z,17.35
